sensor_id;sensor_type;location;lat;lon;timestamp;P1;durP1;ratioP1;P2;durP2;ratioP2
63089;SDS011;49174;43.198;27.824;2023-06-24T00:01:25;28.27;;;12.75;;
63089;SDS011;49174;43.198;27.824;2023-06-24T00:03:52;19.10;;;11.38;;
63089;SDS011;49174;43.198;27.824;2023-06-24T00:06:18;20.55;;;10.65;;
63089;SDS011;49174;43.198;27.824;2023-06-24T00:08:45;19.55;;;11.32;;
63089;SDS011;49174;43.198;27.824;2023-06-24T00:11:11;17.90;;;10.35;;
63089;SDS011;49174;43.198;27.824;2023-06-24T00:13:38;24.23;;;11.43;;
63089;SDS011;49174;43.198;27.824;2023-06-24T00:16:04;14.20;;;9.98;;
63089;SDS011;49174;43.198;27.824;2023-06-24T00:18:31;14.75;;;10.18;;
63089;SDS011;49174;43.198;27.824;2023-06-24T00:20:57;19.23;;;9.75;;
63089;SDS011;49174;43.198;27.824;2023-06-24T00:23:23;16.67;;;11.55;;
63089;SDS011;49174;43.198;27.824;2023-06-24T00:25:52;16.15;;;10.65;;
63089;SDS011;49174;43.198;27.824;2023-06-24T00:28:18;15.68;;;10.38;;
63089;SDS011;49174;43.198;27.824;2023-06-24T00:30:44;18.55;;;11.25;;
63089;SDS011;49174;43.198;27.824;2023-06-24T00:33:09;20.73;;;12.23;;
63089;SDS011;49174;43.198;27.824;2023-06-24T00:35:36;14.70;;;11.30;;
63089;SDS011;49174;43.198;27.824;2023-06-24T00:38:03;19.15;;;11.70;;
63089;SDS011;49174;43.198;27.824;2023-06-24T00:40:29;19.85;;;13.48;;
63089;SDS011;49174;43.198;27.824;2023-06-24T00:42:54;24.30;;;13.95;;
63089;SDS011;49174;43.198;27.824;2023-06-24T00:45:24;20.52;;;13.90;;
63089;SDS011;49174;43.198;27.824;2023-06-24T00:47:50;20.63;;;13.63;;
63089;SDS011;49174;43.198;27.824;2023-06-24T00:50:16;14.77;;;12.30;;
63089;SDS011;49174;43.198;27.824;2023-06-24T00:52:42;15.18;;;11.85;;
63089;SDS011;49174;43.198;27.824;2023-06-24T00:55:08;16.05;;;11.48;;
63089;SDS011;49174;43.198;27.824;2023-06-24T00:57:37;14.00;;;10.95;;
63089;SDS011;49174;43.198;27.824;2023-06-24T01:00:04;16.90;;;11.77;;
63089;SDS011;49174;43.198;27.824;2023-06-24T01:02:37;14.40;;;10.73;;
63089;SDS011;49174;43.198;27.824;2023-06-24T01:05:03;20.35;;;11.43;;
63089;SDS011;49174;43.198;27.824;2023-06-24T01:07:31;17.80;;;11.55;;
63089;SDS011;49174;43.198;27.824;2023-06-24T01:09:57;13.80;;;11.02;;
63089;SDS011;49174;43.198;27.824;2023-06-24T01:12:22;14.18;;;11.00;;
63089;SDS011;49174;43.198;27.824;2023-06-24T01:14:48;20.58;;;11.68;;
63089;SDS011;49174;43.198;27.824;2023-06-24T01:17:19;16.27;;;10.95;;
63089;SDS011;49174;43.198;27.824;2023-06-24T01:33:23;15.15;;;10.82;;
63089;SDS011;49174;43.198;27.824;2023-06-24T01:35:57;16.70;;;10.00;;
63089;SDS011;49174;43.198;27.824;2023-06-24T01:38:26;16.27;;;11.68;;
63089;SDS011;49174;43.198;27.824;2023-06-24T01:41:01;18.38;;;11.85;;
63089;SDS011;49174;43.198;27.824;2023-06-24T01:43:29;14.73;;;10.98;;
63089;SDS011;49174;43.198;27.824;2023-06-24T01:45:57;15.95;;;11.27;;
63089;SDS011;49174;43.198;27.824;2023-06-24T01:48:25;17.17;;;11.10;;
63089;SDS011;49174;43.198;27.824;2023-06-24T01:53:19;17.80;;;11.88;;
63089;SDS011;49174;43.198;27.824;2023-06-24T01:55:46;19.23;;;12.02;;
63089;SDS011;49174;43.198;27.824;2023-06-24T01:58:14;15.13;;;11.43;;
63089;SDS011;49174;43.198;27.824;2023-06-24T02:00:43;18.42;;;12.40;;
63089;SDS011;49174;43.198;27.824;2023-06-24T02:03:09;19.58;;;12.10;;
63089;SDS011;49174;43.198;27.824;2023-06-24T02:05:36;15.77;;;11.88;;
63089;SDS011;49174;43.198;27.824;2023-06-24T02:08:05;14.98;;;11.57;;
63089;SDS011;49174;43.198;27.824;2023-06-24T02:10:33;17.77;;;12.35;;
63089;SDS011;49174;43.198;27.824;2023-06-24T02:13:02;18.08;;;12.00;;
63089;SDS011;49174;43.198;27.824;2023-06-24T02:15:28;17.98;;;12.35;;
63089;SDS011;49174;43.198;27.824;2023-06-24T02:17:54;16.30;;;12.05;;
63089;SDS011;49174;43.198;27.824;2023-06-24T02:20:21;16.58;;;12.75;;
63089;SDS011;49174;43.198;27.824;2023-06-24T02:22:52;16.42;;;11.23;;
63089;SDS011;49174;43.198;27.824;2023-06-24T02:25:19;17.13;;;12.45;;
63089;SDS011;49174;43.198;27.824;2023-06-24T02:27:45;16.80;;;11.88;;
63089;SDS011;49174;43.198;27.824;2023-06-24T02:30:11;19.80;;;12.15;;
63089;SDS011;49174;43.198;27.824;2023-06-24T02:32:38;15.88;;;11.15;;
63089;SDS011;49174;43.198;27.824;2023-06-24T02:35:04;18.10;;;10.93;;
63089;SDS011;49174;43.198;27.824;2023-06-24T02:37:30;17.35;;;11.07;;
63089;SDS011;49174;43.198;27.824;2023-06-24T02:39:56;16.15;;;10.80;;
63089;SDS011;49174;43.198;27.824;2023-06-24T02:42:22;16.40;;;10.98;;
63089;SDS011;49174;43.198;27.824;2023-06-24T02:44:47;20.58;;;11.50;;
63089;SDS011;49174;43.198;27.824;2023-06-24T02:47:13;16.98;;;12.10;;
63089;SDS011;49174;43.198;27.824;2023-06-24T02:49:41;17.90;;;10.77;;
63089;SDS011;49174;43.198;27.824;2023-06-24T02:52:11;17.23;;;10.30;;
63089;SDS011;49174;43.198;27.824;2023-06-24T02:54:37;17.00;;;11.07;;
63089;SDS011;49174;43.198;27.824;2023-06-24T02:57:05;17.10;;;11.95;;
63089;SDS011;49174;43.198;27.824;2023-06-24T02:59:32;19.08;;;12.23;;
63089;SDS011;49174;43.198;27.824;2023-06-24T03:01:58;21.73;;;10.75;;
63089;SDS011;49174;43.198;27.824;2023-06-24T03:04:24;21.40;;;12.25;;
63089;SDS011;49174;43.198;27.824;2023-06-24T03:06:51;18.00;;;12.43;;
63089;SDS011;49174;43.198;27.824;2023-06-24T03:09:18;22.90;;;11.85;;
63089;SDS011;49174;43.198;27.824;2023-06-24T03:11:43;19.25;;;12.00;;
63089;SDS011;49174;43.198;27.824;2023-06-24T03:14:10;17.38;;;11.25;;
63089;SDS011;49174;43.198;27.824;2023-06-24T03:16:36;16.10;;;10.85;;
63089;SDS011;49174;43.198;27.824;2023-06-24T03:19:05;16.95;;;11.57;;
63089;SDS011;49174;43.198;27.824;2023-06-24T03:21:31;18.30;;;11.27;;
63089;SDS011;49174;43.198;27.824;2023-06-24T03:23:57;17.27;;;12.32;;
63089;SDS011;49174;43.198;27.824;2023-06-24T03:26:24;17.63;;;11.50;;
63089;SDS011;49174;43.198;27.824;2023-06-24T03:29:00;22.52;;;13.68;;
63089;SDS011;49174;43.198;27.824;2023-06-24T03:31:26;22.02;;;14.10;;
63089;SDS011;49174;43.198;27.824;2023-06-24T03:33:51;21.38;;;13.25;;
63089;SDS011;49174;43.198;27.824;2023-06-24T03:36:17;18.52;;;13.07;;
63089;SDS011;49174;43.198;27.824;2023-06-24T03:38:42;20.55;;;14.23;;
63089;SDS011;49174;43.198;27.824;2023-06-24T03:41:08;20.58;;;14.57;;
63089;SDS011;49174;43.198;27.824;2023-06-24T03:43:34;21.50;;;14.45;;
63089;SDS011;49174;43.198;27.824;2023-06-24T03:45:59;20.17;;;14.13;;
63089;SDS011;49174;43.198;27.824;2023-06-24T03:48:25;18.67;;;14.02;;
63089;SDS011;49174;43.198;27.824;2023-06-24T03:50:51;18.80;;;12.80;;
63089;SDS011;49174;43.198;27.824;2023-06-24T03:53:16;17.73;;;12.60;;
63089;SDS011;49174;43.198;27.824;2023-06-24T03:55:42;18.67;;;13.57;;
63089;SDS011;49174;43.198;27.824;2023-06-24T03:58:07;17.48;;;13.50;;
63089;SDS011;49174;43.198;27.824;2023-06-24T04:00:33;21.50;;;13.60;;
63089;SDS011;49174;43.198;27.824;2023-06-24T04:02:59;24.70;;;14.57;;
63089;SDS011;49174;43.198;27.824;2023-06-24T04:05:27;21.88;;;13.20;;
63089;SDS011;49174;43.198;27.824;2023-06-24T04:07:52;18.48;;;13.73;;
63089;SDS011;49174;43.198;27.824;2023-06-24T04:10:18;16.27;;;12.40;;
63089;SDS011;49174;43.198;27.824;2023-06-24T04:12:44;17.83;;;11.25;;
63089;SDS011;49174;43.198;27.824;2023-06-24T04:15:10;18.35;;;12.95;;
63089;SDS011;49174;43.198;27.824;2023-06-24T04:17:36;13.93;;;11.68;;
63089;SDS011;49174;43.198;27.824;2023-06-24T04:20:02;15.40;;;11.82;;
63089;SDS011;49174;43.198;27.824;2023-06-24T04:22:31;14.40;;;12.25;;
63089;SDS011;49174;43.198;27.824;2023-06-24T04:24:56;15.93;;;11.10;;
63089;SDS011;49174;43.198;27.824;2023-06-24T04:27:21;15.93;;;11.93;;
63089;SDS011;49174;43.198;27.824;2023-06-24T04:29:47;17.10;;;11.80;;
63089;SDS011;49174;43.198;27.824;2023-06-24T04:32:13;15.63;;;12.07;;
63089;SDS011;49174;43.198;27.824;2023-06-24T04:34:39;14.50;;;11.50;;
63089;SDS011;49174;43.198;27.824;2023-06-24T04:37:05;13.77;;;11.77;;
63089;SDS011;49174;43.198;27.824;2023-06-24T04:39:35;15.48;;;12.02;;
63089;SDS011;49174;43.198;27.824;2023-06-24T04:42:03;14.73;;;11.38;;
63089;SDS011;49174;43.198;27.824;2023-06-24T04:44:29;13.98;;;11.25;;
63089;SDS011;49174;43.198;27.824;2023-06-24T04:46:54;18.98;;;12.18;;
63089;SDS011;49174;43.198;27.824;2023-06-24T04:49:19;15.48;;;12.50;;
63089;SDS011;49174;43.198;27.824;2023-06-24T04:51:45;16.27;;;12.60;;
63089;SDS011;49174;43.198;27.824;2023-06-24T04:54:11;18.58;;;12.20;;
63089;SDS011;49174;43.198;27.824;2023-06-24T04:56:37;14.65;;;12.20;;
63089;SDS011;49174;43.198;27.824;2023-06-24T04:59:04;17.50;;;11.82;;
63089;SDS011;49174;43.198;27.824;2023-06-24T05:01:29;15.13;;;10.45;;
63089;SDS011;49174;43.198;27.824;2023-06-24T05:14:49;14.45;;;12.05;;
63089;SDS011;49174;43.198;27.824;2023-06-24T05:17:15;13.75;;;11.27;;
63089;SDS011;49174;43.198;27.824;2023-06-24T05:19:41;13.93;;;12.15;;
63089;SDS011;49174;43.198;27.824;2023-06-24T05:22:06;15.70;;;12.30;;
63089;SDS011;49174;43.198;27.824;2023-06-24T05:24:32;19.10;;;12.02;;
63089;SDS011;49174;43.198;27.824;2023-06-24T05:27:03;13.27;;;10.82;;
63089;SDS011;49174;43.198;27.824;2023-06-24T05:29:31;13.90;;;11.60;;
63089;SDS011;49174;43.198;27.824;2023-06-24T05:31:57;13.57;;;10.25;;
63089;SDS011;49174;43.198;27.824;2023-06-24T05:34:22;15.27;;;10.13;;
63089;SDS011;49174;43.198;27.824;2023-06-24T05:36:47;12.20;;;10.02;;
63089;SDS011;49174;43.198;27.824;2023-06-24T05:39:13;9.50;;;8.38;;
63089;SDS011;49174;43.198;27.824;2023-06-24T05:41:39;10.80;;;8.88;;
63089;SDS011;49174;43.198;27.824;2023-06-24T05:44:06;10.43;;;8.25;;
63089;SDS011;49174;43.198;27.824;2023-06-24T05:46:32;9.23;;;7.35;;
63089;SDS011;49174;43.198;27.824;2023-06-24T05:48:58;10.00;;;7.32;;
63089;SDS011;49174;43.198;27.824;2023-06-24T05:51:24;8.98;;;7.30;;
63089;SDS011;49174;43.198;27.824;2023-06-24T05:53:50;9.50;;;6.95;;
63089;SDS011;49174;43.198;27.824;2023-06-24T05:56:15;11.10;;;7.55;;
63089;SDS011;49174;43.198;27.824;2023-06-24T05:58:41;10.05;;;7.00;;
63089;SDS011;49174;43.198;27.824;2023-06-24T06:01:09;19.63;;;15.50;;
63089;SDS011;49174;43.198;27.824;2023-06-24T06:03:35;10.10;;;8.20;;
63089;SDS011;49174;43.198;27.824;2023-06-24T06:06:01;8.98;;;6.60;;
63089;SDS011;49174;43.198;27.824;2023-06-24T06:08:26;26.90;;;20.13;;
63089;SDS011;49174;43.198;27.824;2023-06-24T06:10:52;13.38;;;6.95;;
63089;SDS011;49174;43.198;27.824;2023-06-24T06:13:17;11.77;;;6.50;;
63089;SDS011;49174;43.198;27.824;2023-06-24T06:15:43;9.88;;;7.55;;
63089;SDS011;49174;43.198;27.824;2023-06-24T06:18:09;8.23;;;5.95;;
63089;SDS011;49174;43.198;27.824;2023-06-24T06:20:34;6.72;;;5.68;;
63089;SDS011;49174;43.198;27.824;2023-06-24T06:23:00;11.18;;;6.43;;
63089;SDS011;49174;43.198;27.824;2023-06-24T06:25:25;6.35;;;5.15;;
63089;SDS011;49174;43.198;27.824;2023-06-24T06:27:51;11.32;;;6.07;;
63089;SDS011;49174;43.198;27.824;2023-06-24T06:30:17;7.75;;;6.13;;
63089;SDS011;49174;43.198;27.824;2023-06-24T06:32:42;13.20;;;5.78;;
63089;SDS011;49174;43.198;27.824;2023-06-24T06:35:08;11.20;;;6.25;;
63089;SDS011;49174;43.198;27.824;2023-06-24T06:37:33;7.15;;;4.80;;
63089;SDS011;49174;43.198;27.824;2023-06-24T06:39:59;6.45;;;5.28;;
63089;SDS011;49174;43.198;27.824;2023-06-24T06:42:25;7.47;;;5.25;;
63089;SDS011;49174;43.198;27.824;2023-06-24T06:44:50;6.43;;;5.18;;
63089;SDS011;49174;43.198;27.824;2023-06-24T06:47:16;6.10;;;4.60;;
63089;SDS011;49174;43.198;27.824;2023-06-24T06:49:41;6.82;;;4.95;;
63089;SDS011;49174;43.198;27.824;2023-06-24T06:52:07;7.07;;;4.95;;
63089;SDS011;49174;43.198;27.824;2023-06-24T06:54:35;6.07;;;4.82;;
63089;SDS011;49174;43.198;27.824;2023-06-24T06:57:01;7.78;;;4.97;;
63089;SDS011;49174;43.198;27.824;2023-06-24T06:59:28;12.60;;;7.60;;
63089;SDS011;49174;43.198;27.824;2023-06-24T07:01:55;14.65;;;11.48;;
63089;SDS011;49174;43.198;27.824;2023-06-24T07:04:20;7.38;;;5.28;;
63089;SDS011;49174;43.198;27.824;2023-06-24T07:06:46;7.22;;;5.18;;
63089;SDS011;49174;43.198;27.824;2023-06-24T07:09:11;5.68;;;5.03;;
63089;SDS011;49174;43.198;27.824;2023-06-24T07:11:37;6.60;;;5.00;;
63089;SDS011;49174;43.198;27.824;2023-06-24T07:14:02;5.55;;;4.78;;
63089;SDS011;49174;43.198;27.824;2023-06-24T07:16:28;10.57;;;5.25;;
63089;SDS011;49174;43.198;27.824;2023-06-24T07:18:53;6.60;;;4.95;;
63089;SDS011;49174;43.198;27.824;2023-06-24T07:21:19;5.80;;;5.05;;
63089;SDS011;49174;43.198;27.824;2023-06-24T07:23:45;8.00;;;4.80;;
63089;SDS011;49174;43.198;27.824;2023-06-24T07:26:11;6.82;;;4.70;;
63089;SDS011;49174;43.198;27.824;2023-06-24T07:28:36;7.32;;;4.72;;
63089;SDS011;49174;43.198;27.824;2023-06-24T07:31:02;9.98;;;4.95;;
63089;SDS011;49174;43.198;27.824;2023-06-24T07:33:27;7.53;;;4.90;;
63089;SDS011;49174;43.198;27.824;2023-06-24T07:35:55;5.18;;;4.35;;
63089;SDS011;49174;43.198;27.824;2023-06-24T07:38:21;5.43;;;4.20;;
63089;SDS011;49174;43.198;27.824;2023-06-24T07:40:46;7.13;;;4.10;;
63089;SDS011;49174;43.198;27.824;2023-06-24T07:43:12;5.60;;;4.47;;
63089;SDS011;49174;43.198;27.824;2023-06-24T07:45:37;5.93;;;3.92;;
63089;SDS011;49174;43.198;27.824;2023-06-24T07:48:03;8.00;;;4.35;;
63089;SDS011;49174;43.198;27.824;2023-06-24T07:50:30;7.43;;;4.00;;
63089;SDS011;49174;43.198;27.824;2023-06-24T07:52:56;6.13;;;4.35;;
63089;SDS011;49174;43.198;27.824;2023-06-24T07:55:22;6.53;;;3.92;;
63089;SDS011;49174;43.198;27.824;2023-06-24T07:57:48;14.30;;;11.40;;
63089;SDS011;49174;43.198;27.824;2023-06-24T08:00:14;8.15;;;5.22;;
63089;SDS011;49174;43.198;27.824;2023-06-24T08:02:40;5.10;;;4.18;;
63089;SDS011;49174;43.198;27.824;2023-06-24T08:05:07;9.35;;;4.30;;
63089;SDS011;49174;43.198;27.824;2023-06-24T08:07:34;8.07;;;4.65;;
63089;SDS011;49174;43.198;27.824;2023-06-24T08:10:00;7.75;;;4.40;;
63089;SDS011;49174;43.198;27.824;2023-06-24T08:12:26;5.45;;;4.15;;
63089;SDS011;49174;43.198;27.824;2023-06-24T08:14:51;5.00;;;4.00;;
63089;SDS011;49174;43.198;27.824;2023-06-24T08:17:17;4.63;;;3.10;;
63089;SDS011;49174;43.198;27.824;2023-06-24T08:19:42;9.45;;;4.18;;
63089;SDS011;49174;43.198;27.824;2023-06-24T08:22:08;5.88;;;4.10;;
63089;SDS011;49174;43.198;27.824;2023-06-24T08:24:33;5.53;;;3.90;;
63089;SDS011;49174;43.198;27.824;2023-06-24T08:26:59;5.00;;;3.33;;
63089;SDS011;49174;43.198;27.824;2023-06-24T08:29:24;4.63;;;3.92;;
63089;SDS011;49174;43.198;27.824;2023-06-24T08:31:50;8.15;;;3.70;;
63089;SDS011;49174;43.198;27.824;2023-06-24T08:34:15;4.85;;;3.50;;
63089;SDS011;49174;43.198;27.824;2023-06-24T08:36:41;4.85;;;3.67;;
63089;SDS011;49174;43.198;27.824;2023-06-24T08:39:07;5.07;;;3.45;;
63089;SDS011;49174;43.198;27.824;2023-06-24T08:41:33;4.25;;;3.33;;
63089;SDS011;49174;43.198;27.824;2023-06-24T08:43:58;5.55;;;3.40;;
63089;SDS011;49174;43.198;27.824;2023-06-24T08:46:24;4.53;;;3.00;;
63089;SDS011;49174;43.198;27.824;2023-06-24T08:48:53;4.35;;;3.08;;
63089;SDS011;49174;43.198;27.824;2023-06-24T08:51:27;4.20;;;3.22;;
63089;SDS011;49174;43.198;27.824;2023-06-24T08:53:56;4.70;;;3.58;;
63089;SDS011;49174;43.198;27.824;2023-06-24T08:56:24;6.10;;;3.63;;
63089;SDS011;49174;43.198;27.824;2023-06-24T08:58:50;7.15;;;3.95;;
63089;SDS011;49174;43.198;27.824;2023-06-24T09:01:16;5.35;;;3.80;;
63089;SDS011;49174;43.198;27.824;2023-06-24T09:03:42;5.70;;;3.90;;
63089;SDS011;49174;43.198;27.824;2023-06-24T09:06:08;7.20;;;4.32;;
63089;SDS011;49174;43.198;27.824;2023-06-24T09:08:33;5.65;;;3.58;;
63089;SDS011;49174;43.198;27.824;2023-06-24T09:11:00;6.65;;;3.80;;
63089;SDS011;49174;43.198;27.824;2023-06-24T09:13:35;5.55;;;3.47;;
63089;SDS011;49174;43.198;27.824;2023-06-24T09:16:13;5.90;;;3.88;;
63089;SDS011;49174;43.198;27.824;2023-06-24T09:18:39;4.50;;;3.70;;
63089;SDS011;49174;43.198;27.824;2023-06-24T09:21:05;4.22;;;3.10;;
63089;SDS011;49174;43.198;27.824;2023-06-24T09:23:34;3.80;;;3.10;;
63089;SDS011;49174;43.198;27.824;2023-06-24T09:26:01;3.63;;;3.03;;
63089;SDS011;49174;43.198;27.824;2023-06-24T09:28:26;4.45;;;3.10;;
63089;SDS011;49174;43.198;27.824;2023-06-24T09:31:05;5.90;;;3.15;;
63089;SDS011;49174;43.198;27.824;2023-06-24T09:33:31;4.45;;;3.05;;
63089;SDS011;49174;43.198;27.824;2023-06-24T09:35:57;4.10;;;3.20;;
63089;SDS011;49174;43.198;27.824;2023-06-24T09:38:32;4.20;;;3.00;;
63089;SDS011;49174;43.198;27.824;2023-06-24T09:41:03;4.20;;;3.10;;
63089;SDS011;49174;43.198;27.824;2023-06-24T09:43:29;4.00;;;3.15;;
63089;SDS011;49174;43.198;27.824;2023-06-24T09:45:56;4.93;;;3.17;;
63089;SDS011;49174;43.198;27.824;2023-06-24T09:48:24;4.10;;;2.83;;
63089;SDS011;49174;43.198;27.824;2023-06-24T09:50:49;6.13;;;3.05;;
63089;SDS011;49174;43.198;27.824;2023-06-24T09:53:15;5.10;;;2.88;;
63089;SDS011;49174;43.198;27.824;2023-06-24T09:55:41;4.30;;;3.30;;
63089;SDS011;49174;43.198;27.824;2023-06-24T09:58:09;5.97;;;2.90;;
63089;SDS011;49174;43.198;27.824;2023-06-24T10:00:36;3.95;;;3.28;;
63089;SDS011;49174;43.198;27.824;2023-06-24T10:03:02;3.35;;;3.00;;
63089;SDS011;49174;43.198;27.824;2023-06-24T10:05:28;4.90;;;3.22;;
63089;SDS011;49174;43.198;27.824;2023-06-24T10:07:54;3.67;;;3.05;;
63089;SDS011;49174;43.198;27.824;2023-06-24T10:10:19;3.97;;;2.88;;
63089;SDS011;49174;43.198;27.824;2023-06-24T10:12:44;4.53;;;3.20;;
63089;SDS011;49174;43.198;27.824;2023-06-24T10:15:10;4.68;;;3.10;;
63089;SDS011;49174;43.198;27.824;2023-06-24T10:17:36;6.25;;;3.30;;
63089;SDS011;49174;43.198;27.824;2023-06-24T10:20:05;5.53;;;3.35;;
63089;SDS011;49174;43.198;27.824;2023-06-24T10:22:31;4.05;;;3.38;;
63089;SDS011;49174;43.198;27.824;2023-06-24T10:25:00;6.38;;;3.95;;
63089;SDS011;49174;43.198;27.824;2023-06-24T10:27:27;4.68;;;3.42;;
63089;SDS011;49174;43.198;27.824;2023-06-24T10:30:01;4.78;;;3.10;;
63089;SDS011;49174;43.198;27.824;2023-06-24T10:32:38;4.57;;;3.40;;
63089;SDS011;49174;43.198;27.824;2023-06-24T10:35:08;3.67;;;3.13;;
63089;SDS011;49174;43.198;27.824;2023-06-24T10:37:53;7.75;;;3.47;;
63089;SDS011;49174;43.198;27.824;2023-06-24T10:40:33;3.70;;;2.80;;
63089;SDS011;49174;43.198;27.824;2023-06-24T10:45:54;3.85;;;3.08;;
63089;SDS011;49174;43.198;27.824;2023-06-24T10:48:24;5.68;;;3.13;;
63089;SDS011;49174;43.198;27.824;2023-06-24T10:50:50;4.57;;;2.90;;
63089;SDS011;49174;43.198;27.824;2023-06-24T10:53:16;4.30;;;3.28;;
63089;SDS011;49174;43.198;27.824;2023-06-24T10:55:43;3.70;;;3.30;;
63089;SDS011;49174;43.198;27.824;2023-06-24T10:58:11;5.78;;;3.65;;
63089;SDS011;49174;43.198;27.824;2023-06-24T11:00:39;3.97;;;3.22;;
63089;SDS011;49174;43.198;27.824;2023-06-24T11:03:11;4.20;;;3.15;;
63089;SDS011;49174;43.198;27.824;2023-06-24T11:08:08;4.47;;;3.25;;
63089;SDS011;49174;43.198;27.824;2023-06-24T11:10:41;6.03;;;3.55;;
63089;SDS011;49174;43.198;27.824;2023-06-24T11:13:15;4.95;;;3.22;;
63089;SDS011;49174;43.198;27.824;2023-06-24T11:15:45;4.15;;;3.38;;
63089;SDS011;49174;43.198;27.824;2023-06-24T11:18:10;4.00;;;3.10;;
63089;SDS011;49174;43.198;27.824;2023-06-24T11:20:39;5.20;;;3.70;;
63089;SDS011;49174;43.198;27.824;2023-06-24T11:23:08;5.65;;;3.63;;
63089;SDS011;49174;43.198;27.824;2023-06-24T11:25:42;5.13;;;3.58;;
63089;SDS011;49174;43.198;27.824;2023-06-24T11:28:12;5.65;;;3.30;;
63089;SDS011;49174;43.198;27.824;2023-06-24T11:30:38;5.00;;;3.70;;
63089;SDS011;49174;43.198;27.824;2023-06-24T11:33:04;5.28;;;3.42;;
63089;SDS011;49174;43.198;27.824;2023-06-24T11:35:29;4.65;;;3.20;;
63089;SDS011;49174;43.198;27.824;2023-06-24T11:38:00;4.13;;;3.25;;
63089;SDS011;49174;43.198;27.824;2023-06-24T11:40:25;5.15;;;3.30;;
63089;SDS011;49174;43.198;27.824;2023-06-24T11:42:51;4.20;;;3.50;;
63089;SDS011;49174;43.198;27.824;2023-06-24T11:45:19;5.60;;;3.70;;
63089;SDS011;49174;43.198;27.824;2023-06-24T11:47:46;6.00;;;3.25;;
63089;SDS011;49174;43.198;27.824;2023-06-24T11:50:13;6.47;;;3.30;;
63089;SDS011;49174;43.198;27.824;2023-06-24T11:55:23;4.75;;;3.08;;
63089;SDS011;49174;43.198;27.824;2023-06-24T11:57:59;5.18;;;3.95;;
63089;SDS011;49174;43.198;27.824;2023-06-24T12:02:53;3.17;;;2.60;;
63089;SDS011;49174;43.198;27.824;2023-06-24T12:05:24;4.72;;;3.50;;
63089;SDS011;49174;43.198;27.824;2023-06-24T12:10:21;5.55;;;3.60;;
63089;SDS011;49174;43.198;27.824;2023-06-24T12:12:48;3.78;;;2.88;;
63089;SDS011;49174;43.198;27.824;2023-06-24T12:15:13;4.55;;;3.92;;
63089;SDS011;49174;43.198;27.824;2023-06-24T12:17:39;3.80;;;3.08;;
63089;SDS011;49174;43.198;27.824;2023-06-24T12:20:05;4.82;;;2.90;;
63089;SDS011;49174;43.198;27.824;2023-06-24T12:22:31;6.57;;;3.33;;
63089;SDS011;49174;43.198;27.824;2023-06-24T12:24:56;4.50;;;3.05;;
63089;SDS011;49174;43.198;27.824;2023-06-24T12:27:23;6.05;;;3.55;;
63089;SDS011;49174;43.198;27.824;2023-06-24T12:29:49;3.90;;;2.90;;
63089;SDS011;49174;43.198;27.824;2023-06-24T12:32:14;5.90;;;3.22;;
63089;SDS011;49174;43.198;27.824;2023-06-24T12:34:39;5.07;;;2.85;;
63089;SDS011;49174;43.198;27.824;2023-06-24T12:37:07;4.75;;;2.97;;
63089;SDS011;49174;43.198;27.824;2023-06-24T12:39:33;4.82;;;3.78;;
63089;SDS011;49174;43.198;27.824;2023-06-24T12:41:59;6.15;;;3.33;;
63089;SDS011;49174;43.198;27.824;2023-06-24T12:44:24;6.97;;;3.08;;
63089;SDS011;49174;43.198;27.824;2023-06-24T12:46:50;3.80;;;3.05;;
63089;SDS011;49174;43.198;27.824;2023-06-24T12:49:15;4.88;;;3.35;;
63089;SDS011;49174;43.198;27.824;2023-06-24T12:51:41;4.18;;;3.20;;
63089;SDS011;49174;43.198;27.824;2023-06-24T12:54:06;4.90;;;4.40;;
63089;SDS011;49174;43.198;27.824;2023-06-24T12:56:31;3.88;;;3.08;;
63089;SDS011;49174;43.198;27.824;2023-06-24T12:58:57;4.22;;;3.30;;
63089;SDS011;49174;43.198;27.824;2023-06-24T13:01:22;5.15;;;3.35;;
63089;SDS011;49174;43.198;27.824;2023-06-24T13:03:48;3.95;;;2.83;;
63089;SDS011;49174;43.198;27.824;2023-06-24T13:06:13;5.15;;;3.13;;
63089;SDS011;49174;43.198;27.824;2023-06-24T13:08:39;4.30;;;3.30;;
63089;SDS011;49174;43.198;27.824;2023-06-24T13:11:04;3.35;;;2.70;;
63089;SDS011;49174;43.198;27.824;2023-06-24T13:13:30;4.78;;;3.67;;
63089;SDS011;49174;43.198;27.824;2023-06-24T13:15:56;5.13;;;2.72;;
63089;SDS011;49174;43.198;27.824;2023-06-24T13:18:21;6.18;;;3.10;;
63089;SDS011;49174;43.198;27.824;2023-06-24T13:20:47;4.65;;;2.85;;
63089;SDS011;49174;43.198;27.824;2023-06-24T13:23:13;5.03;;;3.00;;
63089;SDS011;49174;43.198;27.824;2023-06-24T13:25:38;6.97;;;3.28;;
63089;SDS011;49174;43.198;27.824;2023-06-24T13:28:04;4.00;;;2.90;;
63089;SDS011;49174;43.198;27.824;2023-06-24T13:30:31;4.93;;;3.00;;
63089;SDS011;49174;43.198;27.824;2023-06-24T13:32:56;3.35;;;2.90;;
63089;SDS011;49174;43.198;27.824;2023-06-24T13:35:22;3.92;;;2.83;;
63089;SDS011;49174;43.198;27.824;2023-06-24T13:37:47;5.85;;;3.47;;
63089;SDS011;49174;43.198;27.824;2023-06-24T13:40:13;4.05;;;2.85;;
63089;SDS011;49174;43.198;27.824;2023-06-24T13:42:38;3.88;;;2.88;;
63089;SDS011;49174;43.198;27.824;2023-06-24T13:45:04;5.05;;;2.88;;
63089;SDS011;49174;43.198;27.824;2023-06-24T13:47:30;3.67;;;2.63;;
63089;SDS011;49174;43.198;27.824;2023-06-24T13:49:56;6.55;;;3.00;;
63089;SDS011;49174;43.198;27.824;2023-06-24T13:52:24;4.30;;;3.17;;
63089;SDS011;49174;43.198;27.824;2023-06-24T13:54:52;5.50;;;2.65;;
63089;SDS011;49174;43.198;27.824;2023-06-24T13:57:18;4.22;;;3.50;;
63089;SDS011;49174;43.198;27.824;2023-06-24T13:59:43;4.05;;;2.58;;
63089;SDS011;49174;43.198;27.824;2023-06-24T14:02:09;5.40;;;2.75;;
63089;SDS011;49174;43.198;27.824;2023-06-24T14:04:36;4.55;;;3.03;;
63089;SDS011;49174;43.198;27.824;2023-06-24T14:07:04;5.55;;;2.90;;
63089;SDS011;49174;43.198;27.824;2023-06-24T14:09:31;3.67;;;2.53;;
63089;SDS011;49174;43.198;27.824;2023-06-24T14:11:56;3.90;;;2.70;;
63089;SDS011;49174;43.198;27.824;2023-06-24T14:14:22;3.80;;;2.92;;
63089;SDS011;49174;43.198;27.824;2023-06-24T14:16:48;3.13;;;2.65;;
63089;SDS011;49174;43.198;27.824;2023-06-24T14:19:13;7.40;;;2.88;;
63089;SDS011;49174;43.198;27.824;2023-06-24T14:21:39;5.65;;;2.85;;
63089;SDS011;49174;43.198;27.824;2023-06-24T14:24:05;3.67;;;2.80;;
63089;SDS011;49174;43.198;27.824;2023-06-24T14:26:36;3.58;;;2.72;;
63089;SDS011;49174;43.198;27.824;2023-06-24T14:29:02;5.43;;;3.10;;
63089;SDS011;49174;43.198;27.824;2023-06-24T14:31:28;4.28;;;2.60;;
63089;SDS011;49174;43.198;27.824;2023-06-24T14:33:54;2.92;;;2.63;;
63089;SDS011;49174;43.198;27.824;2023-06-24T14:36:19;4.32;;;2.75;;
63089;SDS011;49174;43.198;27.824;2023-06-24T14:38:45;4.32;;;2.60;;
63089;SDS011;49174;43.198;27.824;2023-06-24T14:41:10;5.18;;;2.80;;
63089;SDS011;49174;43.198;27.824;2023-06-24T14:43:36;4.65;;;3.17;;
63089;SDS011;49174;43.198;27.824;2023-06-24T14:46:02;3.83;;;3.08;;
63089;SDS011;49174;43.198;27.824;2023-06-24T14:48:27;3.67;;;3.05;;
63089;SDS011;49174;43.198;27.824;2023-06-24T14:50:53;4.43;;;3.20;;
63089;SDS011;49174;43.198;27.824;2023-06-24T14:53:19;3.67;;;2.90;;
63089;SDS011;49174;43.198;27.824;2023-06-24T14:55:45;3.75;;;2.80;;
63089;SDS011;49174;43.198;27.824;2023-06-24T14:58:10;3.47;;;2.90;;
63089;SDS011;49174;43.198;27.824;2023-06-24T15:00:36;4.60;;;2.92;;